createdAt,value
2019-02-07T00:02:38.697Z,46.75
2019-02-07T00:07:40.007Z,47.88
2019-02-07T00:12:41.500Z,49.38
2019-02-07T00:17:42.853Z,45.33
2019-02-07T00:22:44.162Z,43.30
2019-02-07T00:27:45.471Z,47.50
2019-02-07T00:32:46.794Z,45.20
2019-02-07T00:37:48.342Z,44.23
2019-02-07T00:42:49.939Z,45.55
2019-02-07T00:47:51.337Z,48.42
2019-02-07T00:52:52.652Z,46.73
2019-02-07T00:57:54.759Z,51.05
2019-02-07T01:02:56.717Z,52.25
2019-02-07T01:07:58.184Z,49.40
2019-02-07T01:12:59.836Z,48.45
2019-02-07T01:18:01.135Z,42.40
2019-02-07T01:23:02.490Z,45.98
2019-02-07T01:28:03.805Z,51.70
2019-02-07T01:33:05.090Z,47.13
2019-02-07T01:38:07.954Z,50.43
2019-02-07T01:43:09.377Z,51.85
2019-02-07T01:48:10.678Z,55.30
2019-02-07T01:53:11.959Z,48.40
2019-02-07T01:58:13.234Z,50.67
2019-02-07T02:03:14.983Z,52.00
2019-02-07T02:08:16.686Z,50.30
2019-02-07T02:13:18.026Z,53.55
2019-02-07T02:18:19.791Z,46.55
2019-02-07T02:23:21.191Z,53.68
2019-02-07T02:28:22.607Z,55.45
2019-02-07T02:33:24.024Z,50.43
2019-02-07T02:38:25.255Z,56.20
2019-02-07T02:43:26.435Z,50.92
2019-02-07T02:48:27.684Z,55.40
2019-02-07T02:53:28.890Z,47.83
2019-02-07T02:58:30.322Z,54.60
2019-02-07T03:03:33.486Z,55.33
2019-02-07T03:08:42.774Z,54.55
2019-02-07T03:13:51.777Z,58.42
2019-02-07T03:19:10.165Z,54.10
2019-02-07T03:24:13.319Z,53.83
2019-02-07T03:29:22.495Z,53.28
2019-02-07T03:34:28.869Z,58.87
2019-02-07T03:39:32.047Z,51.20
2019-02-07T03:44:52.026Z,56.63
2019-02-07T03:50:01.516Z,52.10
2019-02-07T03:55:12.114Z,53.23
2019-02-07T04:00:18.328Z,50.03
2019-02-07T04:05:21.629Z,54.08
2019-02-07T04:10:24.897Z,58.35
2019-02-07T04:15:28.501Z,51.53
2019-02-07T04:20:48.070Z,46.73
2019-02-07T04:26:03.870Z,51.05
2019-02-07T04:31:12.829Z,51.15
2019-02-07T04:36:16.112Z,49.33
2019-02-07T04:41:36.025Z,49.83
2019-02-07T04:46:48.469Z,48.45
2019-02-07T04:52:08.974Z,49.73
2019-02-07T04:57:14.986Z,45.08
2019-02-07T05:02:33.470Z,50.38
2019-02-07T05:07:54.040Z,49.73
2019-02-07T05:13:15.564Z,46.85
2019-02-07T05:18:36.651Z,49.55
2019-02-07T05:23:46.036Z,52.48
2019-02-07T05:29:07.519Z,43.55
2019-02-07T05:34:13.817Z,50.38
2019-02-07T05:39:17.310Z,46.02
2019-02-07T05:44:29.485Z,47.35
2019-02-07T05:49:41.342Z,47.62
2019-02-07T05:55:00.996Z,51.10
2019-02-07T06:00:23.489Z,49.98
2019-02-07T06:05:43.441Z,50.73
2019-02-07T06:11:03.519Z,46.80
2019-02-07T06:16:07.147Z,54.85
2019-02-07T06:21:22.780Z,51.15
2019-02-07T06:26:35.508Z,46.92
2019-02-07T06:31:55.561Z,50.45
2019-02-07T06:36:58.788Z,47.40
2019-02-07T06:42:08.432Z,47.95
2019-02-07T06:47:13.451Z,50.12
2019-02-07T06:52:33.721Z,46.13
2019-02-07T06:57:52.447Z,40.48
2019-02-07T07:02:55.715Z,38.10
2019-02-07T07:08:04.797Z,37.45
2019-02-07T07:13:14.238Z,34.95
2019-02-07T07:18:34.134Z,31.37
2019-02-07T07:23:37.493Z,34.40
2019-02-07T07:28:43.764Z,39.27
2019-02-07T07:33:59.220Z,34.23
2019-02-07T07:39:14.622Z,30.92
2019-02-07T07:44:23.846Z,34.05
2019-02-07T07:49:38.888Z,31.93
2019-02-07T07:54:59.655Z,32.03
2019-02-07T08:00:05.372Z,34.63
2019-02-07T08:05:14.716Z,34.30
2019-02-07T08:10:34.896Z,33.18
2019-02-07T08:15:55.121Z,34.08
2019-02-07T08:20:58.414Z,33.33
2019-02-07T08:26:04.588Z,29.40
2019-02-07T08:31:07.812Z,29.75
2019-02-07T08:36:18.177Z,36.48
2019-02-07T08:41:21.592Z,32.08
2019-02-07T08:46:41.255Z,35.78
2019-02-07T08:51:53.617Z,35.50
2019-02-07T08:56:56.894Z,32.90
2019-02-07T09:02:15.081Z,35.88
2019-02-07T09:07:18.515Z,45.23
2019-02-07T09:12:38.614Z,32.58
2019-02-07T09:17:44.755Z,31.93
2019-02-07T09:22:55.979Z,31.23
2019-02-07T09:27:59.198Z,35.80
2019-02-07T09:33:18.877Z,32.80
2019-02-07T09:38:40.553Z,38.55
2019-02-07T09:43:46.733Z,44.38
2019-02-07T09:48:58.640Z,34.67
2019-02-07T09:54:04.784Z,40.55
2019-02-07T09:59:08.043Z,32.63
2019-02-07T10:04:15.351Z,36.00
2019-02-07T10:09:18.522Z,36.93
2019-02-07T10:14:21.614Z,36.83
2019-02-07T10:19:42.704Z,40.45
2019-02-07T10:24:58.252Z,36.17
2019-02-07T10:30:02.432Z,37.00
2019-02-07T10:35:09.697Z,41.45
2019-02-07T10:40:16.671Z,36.88
2019-02-07T10:45:22.794Z,42.17
2019-02-07T10:50:38.274Z,36.83
2019-02-07T10:56:00.349Z,40.55
2019-02-07T11:01:06.457Z,44.85
2019-02-07T11:06:18.654Z,42.85
2019-02-07T11:11:30.951Z,57.05
2019-02-07T11:16:42.833Z,56.85
2019-02-07T11:22:02.795Z,65.72
2019-02-07T11:27:18.379Z,61.88
2019-02-07T11:32:38.451Z,58.10
2019-02-07T11:37:59.904Z,63.23
2019-02-07T11:43:09.657Z,60.48
2019-02-07T11:48:13.052Z,57.45
2019-02-07T11:53:32.697Z,54.75
2019-02-07T11:58:38.863Z,60.28
2019-02-07T12:03:45.403Z,54.48
2019-02-07T12:08:51.533Z,63.42
2019-02-07T12:14:09.900Z,59.48
2019-02-07T12:19:25.206Z,57.65
2019-02-07T12:24:34.722Z,64.17
2019-02-07T12:29:44.684Z,56.63
2019-02-07T12:34:50.434Z,62.80
2019-02-07T12:39:53.590Z,62.58
2019-02-07T12:45:12.244Z,58.38
2019-02-07T12:50:15.479Z,61.90
2019-02-07T12:55:21.486Z,61.25
2019-02-07T13:00:41.755Z,63.83
2019-02-07T13:06:01.736Z,56.80
2019-02-07T13:11:15.048Z,56.80
2019-02-07T13:16:36.368Z,49.30
2019-02-07T13:21:56.511Z,52.50
2019-02-07T13:27:02.428Z,44.35
2019-02-07T13:32:10.390Z,44.30
2019-02-07T13:37:17.775Z,45.55
2019-02-07T13:42:32.958Z,48.42
2019-02-07T13:47:42.051Z,46.58
2019-02-07T13:52:51.457Z,48.98
2019-02-07T13:58:11.906Z,42.40
2019-02-07T14:03:33.420Z,44.60
2019-02-07T14:08:40.482Z,42.95
2019-02-07T14:13:59.866Z,37.10
2019-02-07T14:19:03.339Z,43.60
2019-02-07T14:24:09.513Z,41.55
2019-02-07T14:29:29.657Z,35.98
2019-02-07T14:34:41.928Z,38.08
2019-02-07T14:39:47.981Z,40.73
2019-02-07T14:44:53.844Z,43.85
2019-02-07T14:49:55.329Z,40.70
2019-02-07T14:54:57.560Z,35.38
2019-02-07T14:59:58.858Z,45.38
2019-02-07T15:05:00.532Z,46.05
2019-02-07T15:10:01.950Z,46.00
2019-02-07T15:15:09.078Z,37.88
2019-02-07T15:20:11.416Z,44.95
2019-02-07T15:25:12.985Z,37.03
2019-02-07T15:30:16.482Z,41.58
2019-02-07T15:35:24.244Z,42.88
2019-02-07T15:40:25.862Z,42.70
2019-02-07T15:45:27.440Z,45.17
2019-02-07T15:50:37.657Z,50.60
2019-02-07T15:55:34.187Z,44.95
2019-02-07T16:00:43.358Z,46.40
2019-02-07T16:05:45.261Z,49.05
2019-02-07T16:10:46.619Z,47.20
2019-02-07T16:15:48.305Z,47.20
2019-02-07T16:20:49.634Z,45.40
2019-02-07T16:25:51.301Z,47.73
2019-02-07T16:30:54.517Z,48.42
2019-02-07T16:35:55.784Z,47.98
2019-02-07T16:40:57.213Z,50.25
2019-02-07T16:45:58.885Z,49.38
2019-02-07T16:51:00.643Z,50.38
2019-02-07T16:56:02.192Z,45.08
2019-02-07T17:01:04.387Z,52.55
2019-02-07T17:06:05.775Z,50.08
2019-02-07T17:11:07.056Z,50.52
2019-02-07T17:16:08.452Z,45.55
2019-02-07T17:21:12.468Z,50.45
2019-02-07T17:26:13.259Z,50.15
2019-02-07T17:31:14.521Z,52.50
2019-02-07T17:36:17.007Z,61.15
2019-02-07T17:41:18.428Z,50.50
2019-02-07T17:46:19.708Z,51.90
2019-02-07T17:51:23.300Z,52.88
2019-02-07T17:56:24.494Z,56.05
2019-02-07T18:01:26.026Z,50.65
2019-02-07T18:06:27.721Z,54.58
2019-02-07T18:11:29.139Z,50.55
2019-02-07T18:16:31.019Z,51.98
2019-02-07T18:21:34.199Z,52.73
2019-02-07T18:26:35.688Z,52.53
2019-02-07T18:31:37.370Z,50.55
2019-02-07T18:36:39.054Z,56.68
2019-02-07T18:41:40.313Z,53.28
2019-02-07T18:46:41.901Z,55.55
2019-02-07T18:51:45.721Z,50.38
2019-02-07T18:56:46.833Z,59.48
2019-02-07T19:01:48.623Z,56.65
2019-02-07T19:06:50.851Z,53.48
2019-02-07T19:11:52.255Z,55.45
2019-02-07T19:16:53.684Z,50.80
2019-02-07T19:21:57.148Z,51.48
2019-02-07T19:26:58.196Z,48.50
2019-02-07T19:31:59.739Z,51.00
2019-02-07T19:37:01.286Z,57.48
2019-02-07T19:42:04.383Z,57.30
2019-02-07T19:47:05.943Z,56.50
2019-02-07T19:52:08.591Z,50.85
2019-02-07T19:57:10.158Z,48.45
2019-02-07T20:02:11.574Z,48.13
2019-02-07T20:07:13.424Z,48.33
2019-02-07T20:12:16.175Z,47.03
2019-02-07T20:17:17.556Z,51.63
2019-02-07T20:22:20.467Z,48.45
2019-02-07T20:27:31.692Z,51.08
2019-02-07T20:32:37.466Z,42.93
2019-02-07T20:37:38.783Z,41.28
2019-02-07T20:42:45.410Z,38.30
2019-02-07T20:47:48.598Z,49.90
2019-02-07T20:52:50.847Z,47.80
2019-02-07T20:57:53.249Z,45.35
2019-02-07T21:02:56.147Z,49.27
2019-02-07T21:07:57.714Z,56.13
2019-02-07T21:12:59.212Z,49.48
2019-02-07T21:18:00.876Z,48.78
2019-02-07T21:23:03.368Z,48.70
2019-02-07T21:28:06.185Z,50.30
2019-02-07T21:33:07.566Z,47.67
2019-02-07T21:38:08.994Z,49.05
2019-02-07T21:43:10.422Z,52.45
2019-02-07T21:48:12.224Z,43.98
2019-02-07T21:53:14.414Z,42.65
2019-02-07T21:58:15.917Z,41.77
2019-02-07T22:03:18.396Z,34.88
2019-02-07T22:08:19.807Z,34.80
2019-02-07T22:13:21.244Z,37.83
2019-02-07T22:18:22.929Z,35.05
2019-02-07T22:23:24.210Z,35.90
2019-02-07T22:28:25.747Z,37.42
2019-02-07T22:33:27.137Z,35.75
2019-02-07T22:38:28.464Z,39.90
2019-02-07T22:43:29.757Z,39.33
2019-02-07T22:48:31.151Z,38.95
2019-02-07T22:53:32.468Z,40.03
2019-02-07T22:58:33.961Z,34.15
2019-02-07T23:03:37.900Z,39.13
2019-02-07T23:08:39.525Z,38.75
2019-02-07T23:13:40.835Z,36.38
2019-02-07T23:18:42.582Z,38.53
2019-02-07T23:23:44.558Z,33.70
2019-02-07T23:28:46.136Z,32.10
2019-02-07T23:33:47.619Z,40.05
2019-02-07T23:38:48.905Z,35.75
2019-02-07T23:43:55.285Z,31.90
2019-02-07T23:48:56.968Z,34.88
2019-02-07T23:53:58.267Z,36.68
2019-02-07T23:58:59.595Z,35.73
